Terminal Aerodrome Forecast
Issued by NWS Mt. Holly, NJ

Home | Current Version | Previous Version | Text Only | Print | Product List | Glossary On
Versions: 1 2 3 4 5 6 7 8 9 10 11 12 13 14 15 16 17 18 19 20 21 22 23 24 25 26 27
000
FTUS41 KPHI 261900 AAA
TAFABE
TAF AMD
KABE 261952Z 2620/2718 36010KT 3SM -SN OVC015
      TEMPO 2620/2622 1SM -SN OVC005
     FM270000 32010KT 3SM -SN OVC015
      TEMPO 2700/2703 3SM -DZ
     FM270300 33005KT P6SM BKN040=

USA.gov is the U.S. government's official web portal to all federal, state and local government web resources and services.